AVV weather

Avalon Airport
Melbourne, Victoria, Australia

Public forecast

Using degrees Celsius for public forecast. Weather courtesy of forecast.io.

METAR (pilot weather report)

Retrieved 2019/02/16 21:00 UTC (9 minutes ago):

YMAV 162100Z AUTO 00000KT 9999 // NCD 15/15 Q1012 RF00.0/000.0

TAF (pilot weather forecast)

Forecast is more than 6 hours old.

Retrieved 2019/02/16 12:00 UTC (9 hours ago):

TAF YMAV 161110Z 1612/1712 16007KT 9999 BKN015 BECMG 1616/1618 VRB04KT 9999 BKN010 FM162000 VRB04KT 9999 BKN006 BECMG 1622/1624 VRB04KT 9999 SCT012 FM170200 20010KT CAVOK BECMG 1710/1712 VRB05KT 9999 BKN008